Time;durP1;ratioP1;P1;durP2;ratioP2;P2;SDS_P1;SDS_P2;PMS_P1;PMS_P2;Temp;Humidity;BMP_temperature;BMP_pressure;BME280_temperature;BME280_humidity;BME280_pressure;Samples;Min_cycle;Max_cycle;Signal;HPM_P1;HPM_P2
2022/04/12 00:01:31;;;;;;;15.25;9.30;;;7.50;99.90;;;;;;5088200;22;20136;-82
2022/04/12 00:03:57;;;;;;;16.77;9.98;;;7.50;99.90;;;;;;5080850;28;20063;-82
2022/04/12 00:06:23;;;;;;;14.02;9.32;;;7.40;99.90;;;;;;5068900;23;20041;-82
2022/04/12 00:08:48;;;;;;;13.15;9.13;;;8.00;99.90;;;;;;5065284;22;20059;-82
2022/04/12 00:11:14;;;;;;;16.67;9.50;;;8.00;99.90;;;;;;5061687;28;20126;-82
2022/04/12 00:16:10;;;;;;;15.30;9.38;;;7.30;99.90;;;;;;5118126;22;20073;-82
2022/04/12 00:21:40;;;;;;;15.27;10.13;;;8.20;99.90;;;;;;4963988;28;20050;-82
2022/04/12 00:24:07;;;;;;;15.40;9.85;;;7.80;99.90;;;;;;5065112;22;20043;-82
2022/04/12 00:26:34;;;;;;;17.83;10.70;;;7.20;99.90;;;;;;5106984;22;20035;-82
2022/04/12 00:29:00;;;;;;;18.17;9.98;;;7.70;99.90;;;;;;5094325;22;20039;-82
2022/04/12 00:31:26;;;;;;;19.00;10.27;;;7.10;99.90;;;;;;5086387;28;20048;-82
2022/04/12 00:33:52;;;;;;;17.13;10.43;;;7.10;99.90;;;;;;5109311;22;20046;-82
2022/04/12 00:36:17;;;;;;;16.65;10.60;;;7.90;99.90;;;;;;5066656;28;20085;-82
2022/04/12 00:38:43;;;;;;;18.55;10.38;;;6.60;99.90;;;;;;5077662;22;20048;-83
2022/04/12 00:41:11;;;;;;;16.60;9.75;;;6.60;99.90;;;;;;5074168;22;20067;-82
2022/04/12 00:43:38;;;;;;;16.20;10.68;;;7.00;99.90;;;;;;5066716;28;20107;-82
2022/04/12 00:46:04;;;;;;;18.23;10.75;;;8.20;99.90;;;;;;5097634;22;20143;-82
2022/04/12 00:48:31;;;;;;;17.67;11.27;;;6.90;99.90;;;;;;5082198;28;20132;-82
2022/04/12 00:50:58;;;;;;;19.95;11.10;;;7.90;99.90;;;;;;5099317;28;20048;-82
2022/04/12 00:53:25;;;;;;;18.33;11.07;;;7.50;99.90;;;;;;5083802;28;20568;-82
2022/04/12 00:55:51;;;;;;;18.77;10.85;;;7.40;99.90;;;;;;5083314;28;20044;-82
2022/04/12 00:58:18;;;;;;;16.95;11.25;;;6.70;99.90;;;;;;5082281;28;20430;-82
2022/04/12 01:00:44;;;;;;;17.65;10.90;;;6.80;99.90;;;;;;5081552;22;20076;-82
2022/04/12 01:03:10;;;;;;;17.40;10.32;;;6.80;99.90;;;;;;5061610;22;20050;-82
2022/04/12 01:05:36;;;;;;;17.10;10.82;;;7.80;99.90;;;;;;5083705;22;20073;-83
2022/04/12 01:08:02;;;;;;;18.08;11.43;;;6.80;99.90;;;;;;5065487;28;20041;-82
2022/04/12 01:10:31;;;;;;;18.50;10.95;;;6.80;99.90;;;;;;5065655;28;20040;-82
2022/04/12 01:12:57;;;;;;;17.23;11.45;;;6.70;99.90;;;;;;5082014;28;20051;-82
2022/04/12 01:15:24;;;;;;;17.27;10.93;;;6.80;99.90;;;;;;5100383;22;20135;-82
2022/04/12 01:17:51;;;;;;;17.73;10.82;;;6.70;99.90;;;;;;5070857;22;20056;-82
2022/04/12 01:20:23;;;;;;;18.13;11.40;;;6.70;99.90;;;;;;5094147;22;20051;-82
2022/04/12 01:23:07;;;;;;;23.02;11.75;;;7.60;99.90;;;;;;5055572;22;20140;-82
2022/04/12 01:25:33;;;;;;;18.25;11.27;;;6.70;99.90;;;;;;5087577;22;20055;-82
2022/04/12 01:27:58;;;;;;;21.48;11.70;;;6.10;99.90;;;;;;5102547;28;20077;-82
2022/04/12 01:30:24;;;;;;;16.92;10.80;;;8.00;99.90;;;;;;5101448;22;20075;-82
2022/04/12 01:32:50;;;;;;;19.00;10.65;;;7.20;99.90;;;;;;5082171;28;20052;-83
2022/04/12 01:35:15;;;;;;;18.85;11.02;;;6.50;99.90;;;;;;5066609;28;20059;-82
2022/04/12 01:40:09;;;;;;;18.85;11.15;;;6.50;99.90;;;;;;5125769;22;20108;-82
2022/04/12 01:42:36;;;;;;;19.50;11.43;;;6.60;99.90;;;;;;5105894;22;20052;-82
2022/04/12 01:45:02;;;;;;;16.95;10.93;;;6.50;99.90;;;;;;5082196;28;20109;-82
2022/04/12 01:47:29;;;;;;;18.13;11.93;;;6.50;99.90;;;;;;5082798;28;20040;-82
2022/04/12 01:49:54;;;;;;;18.08;11.00;;;7.30;99.90;;;;;;5106484;22;20077;-82
2022/04/12 01:52:22;;;;;;;17.20;10.40;;;6.50;99.90;;;;;;5098556;22;20070;-82
2022/04/12 01:54:47;;;;;;;18.55;11.25;;;6.50;99.90;;;;;;5083138;28;20403;-82
2022/04/12 01:57:13;;;;;;;19.20;10.38;;;6.10;99.90;;;;;;5082646;28;20044;-82
2022/04/12 01:59:39;;;;;;;17.45;11.13;;;6.50;99.90;;;;;;5082406;28;20036;-83
2022/04/12 02:02:05;;;;;;;18.85;11.27;;;6.20;99.90;;;;;;5082515;28;20051;-82
2022/04/12 02:04:30;;;;;;;19.95;11.57;;;6.40;99.90;;;;;;5125012;22;20044;-82
2022/04/12 02:06:57;;;;;;;20.08;11.07;;;6.40;99.90;;;;;;5083252;28;20048;-82
2022/04/12 02:09:23;;;;;;;19.05;11.40;;;6.00;99.90;;;;;;5094382;22;20045;-82
2022/04/12 02:11:48;;;;;;;18.15;11.38;;;6.40;99.90;;;;;;5087119;22;20447;-82
2022/04/12 02:14:14;;;;;;;18.38;11.27;;;6.30;99.90;;;;;;5091414;22;20070;-82
2022/04/12 02:16:40;;;;;;;17.67;10.63;;;6.30;99.90;;;;;;5065692;28;20131;-82
2022/04/12 02:19:05;;;;;;;18.23;11.57;;;7.60;99.90;;;;;;5083187;28;20052;-82
2022/04/12 02:21:31;;;;;;;19.30;11.80;;;7.40;99.90;;;;;;5080234;22;20135;-82
2022/04/12 02:23:57;;;;;;;19.30;11.63;;;6.20;99.90;;;;;;5093355;22;20052;-82
2022/04/12 02:26:22;;;;;;;18.33;10.45;;;7.50;99.90;;;;;;5085760;28;20048;-82
2022/04/12 02:28:48;;;;;;;16.58;10.75;;;7.60;99.90;;;;;;5102527;28;20423;-83
2022/04/12 02:31:14;;;;;;;18.52;11.32;;;6.10;99.90;;;;;;5086226;28;20407;-82
2022/04/12 02:33:40;;;;;;;17.55;10.98;;;7.70;99.90;;;;;;5085878;28;20042;-82
2022/04/12 02:36:05;;;;;;;20.00;10.95;;;7.40;99.90;;;;;;5102889;28;20036;-82
2022/04/12 02:38:31;;;;;;;19.45;10.93;;;6.10;99.90;;;;;;5086340;28;20044;-82
2022/04/12 02:40:57;;;;;;;16.52;10.73;;;6.10;99.90;;;;;;5068599;28;20039;-82
2022/04/12 02:43:22;;;;;;;18.08;10.30;;;5.20;99.90;;;;;;5085595;28;20040;-82
2022/04/12 02:45:48;;;;;;;15.32;10.07;;;6.10;99.90;;;;;;5103238;28;20058;-82
2022/04/12 02:48:14;;;;;;;17.27;10.95;;;6.70;99.90;;;;;;5104101;28;20040;-82
2022/04/12 02:50:40;;;;;;;16.65;10.45;;;6.10;99.90;;;;;;5084972;28;20040;-82
2022/04/12 02:53:06;;;;;;;15.60;10.35;;;6.10;99.90;;;;;;5085442;28;20032;-82
2022/04/12 02:55:31;;;;;;;19.35;10.60;;;6.30;99.90;;;;;;5102421;28;20051;-82
2022/04/12 02:57:57;;;;;;;17.45;10.82;;;7.60;99.90;;;;;;5085706;28;20036;-82
2022/04/12 03:00:22;;;;;;;16.23;10.18;;;6.20;99.90;;;;;;5084925;28;20039;-82
2022/04/12 03:02:48;;;;;;;16.55;10.57;;;7.60;99.90;;;;;;5117866;22;20074;-83
2022/04/12 03:05:15;;;;;;;15.65;9.68;;;6.20;99.90;;;;;;5084875;28;20468;-82
2022/04/12 03:07:40;;;;;;;18.08;10.35;;;5.40;99.90;;;;;;5084642;28;20052;-82
2022/04/12 03:10:07;;;;;;;18.25;10.38;;;6.20;99.90;;;;;;5102124;28;20076;-82
2022/04/12 03:12:32;;;;;;;18.25;10.68;;;6.20;99.90;;;;;;5085225;28;20117;-82
2022/04/12 03:14:59;;;;;;;16.30;10.23;;;6.90;99.90;;;;;;5085362;28;20090;-82
2022/04/12 03:17:25;;;;;;;16.83;9.80;;;6.60;99.90;;;;;;5085212;28;20484;-82
2022/04/12 03:19:51;;;;;;;15.35;9.70;;;6.20;99.90;;;;;;5084644;28;20044;-82
2022/04/12 03:22:16;;;;;;;15.25;10.10;;;6.20;99.90;;;;;;5089964;22;20062;-82
2022/04/12 03:24:44;;;;;;;16.70;9.82;;;6.40;99.90;;;;;;5065417;28;20055;-82
2022/04/12 03:27:09;;;;;;;16.45;9.38;;;7.00;99.90;;;;;;5093851;22;20052;-82
2022/04/12 03:29:35;;;;;;;15.27;10.43;;;7.40;99.90;;;;;;5089218;22;20051;-82
2022/04/12 03:32:01;;;;;;;15.63;9.15;;;7.10;99.90;;;;;;5067761;28;20048;-82
2022/04/12 03:34:27;;;;;;;17.83;10.10;;;6.10;99.90;;;;;;5088860;28;20137;-82
2022/04/12 03:36:53;;;;;;;16.08;9.77;;;6.20;99.90;;;;;;5072449;28;20040;-82
2022/04/12 03:39:19;;;;;;;16.08;9.88;;;6.20;99.90;;;;;;5109460;22;20503;-82
2022/04/12 03:44:15;;;;;;;16.45;9.65;;;6.20;99.90;;;;;;5080648;28;20048;-82
2022/04/12 03:46:41;;;;;;;15.90;10.00;;;6.30;99.90;;;;;;5069533;22;20052;-82
2022/04/12 03:49:06;;;;;;;18.58;9.90;;;6.30;99.90;;;;;;5083750;28;20068;-82
2022/04/12 03:51:32;;;;;;;15.90;9.52;;;7.60;99.90;;;;;;5084768;28;20032;-82
2022/04/12 03:53:58;;;;;;;13.73;9.25;;;5.70;99.90;;;;;;5067053;28;20047;-83
2022/04/12 03:56:24;;;;;;;15.07;9.30;;;6.80;99.90;;;;;;5066930;28;20047;-82
2022/04/12 03:58:49;;;;;;;16.75;9.90;;;6.20;99.90;;;;;;5067269;28;20469;-82
2022/04/12 04:01:15;;;;;;;17.05;9.88;;;6.40;99.90;;;;;;5083840;28;20051;-82
2022/04/12 04:03:41;;;;;;;13.48;9.23;;;7.00;99.90;;;;;;5083979;28;20399;-82
2022/04/12 04:06:07;;;;;;;16.98;9.65;;;6.20;99.90;;;;;;5088709;23;20047;-82
2022/04/12 04:08:33;;;;;;;13.50;9.50;;;6.30;99.90;;;;;;5105765;22;20055;-82
2022/04/12 04:10:58;;;;;;;15.45;9.45;;;6.70;99.90;;;;;;5141220;27;20057;-82
2022/04/12 04:13:26;;;;;;;16.63;9.70;;;6.30;99.90;;;;;;5119154;22;20052;-82
2022/04/12 04:15:52;;;;;;;14.68;9.13;;;6.90;99.90;;;;;;5095037;22;20048;-82
2022/04/12 04:18:18;;;;;;;14.38;9.68;;;5.50;99.90;;;;;;5066876;23;20471;-82
2022/04/12 04:20:43;;;;;;;15.90;9.52;;;7.80;99.90;;;;;;5090848;23;20066;-82
2022/04/12 04:23:09;;;;;;;15.75;9.45;;;6.10;99.90;;;;;;5063441;28;20056;-82
2022/04/12 04:25:36;;;;;;;17.48;10.35;;;6.10;99.90;;;;;;5081135;28;20044;-82
2022/04/12 04:28:05;;;;;;;16.88;9.95;;;6.10;99.90;;;;;;5089227;22;20063;-82
2022/04/12 04:30:33;;;;;;;16.02;9.32;;;6.10;99.90;;;;;;5100595;28;20059;-82
2022/04/12 04:32:59;;;;;;;14.52;9.43;;;6.10;99.90;;;;;;5089071;22;20074;-83
2022/04/12 04:35:25;;;;;;;17.85;9.55;;;6.00;99.90;;;;;;5079850;22;20056;-82
2022/04/12 04:37:51;;;;;;;16.35;9.73;;;6.00;99.90;;;;;;5042942;28;20085;-82
2022/04/12 04:40:20;;;;;;;14.93;9.90;;;6.00;99.90;;;;;;5043787;28;20041;-82
2022/04/12 04:42:47;;;;;;;13.50;9.05;;;6.60;99.90;;;;;;5043125;28;20041;-82
2022/04/12 04:45:14;;;;;;;17.02;10.23;;;6.00;99.90;;;;;;5042246;28;20037;-82
2022/04/12 04:47:52;;;;;;;16.08;9.45;;;6.90;99.90;;;;;;5042765;28;20198;-82
2022/04/12 04:50:20;;;;;;;18.52;10.38;;;7.10;99.90;;;;;;5076335;22;20052;-82
2022/04/12 04:52:46;;;;;;;14.05;9.77;;;6.00;99.90;;;;;;5100363;28;20040;-83
2022/04/12 04:55:11;;;;;;;16.05;9.82;;;6.10;99.90;;;;;;5083212;28;20070;-82
2022/04/12 04:57:41;;;;;;;14.88;9.95;;;7.60;99.90;;;;;;5087704;22;20492;-82
2022/04/12 05:00:09;;;;;;;13.80;9.00;;;7.40;99.90;;;;;;5063481;28;20059;-82
2022/04/12 05:02:35;;;;;;;17.15;9.25;;;6.10;99.90;;;;;;5063165;28;20040;-82
2022/04/12 05:05:04;;;;;;;17.60;9.40;;;6.80;99.90;;;;;;5063744;28;20048;-82
2022/04/12 05:07:29;;;;;;;15.73;9.30;;;6.10;99.90;;;;;;5080397;28;20055;-82
2022/04/12 05:09:55;;;;;;;15.40;9.00;;;7.50;99.90;;;;;;5062727;28;20072;-83
2022/04/12 05:12:21;;;;;;;15.48;9.40;;;6.40;99.90;;;;;;5086324;22;20079;-82
2022/04/12 05:14:46;;;;;;;17.30;9.50;;;6.30;99.90;;;;;;5062160;28;20067;-82
2022/04/12 05:17:12;;;;;;;15.48;8.85;;;6.40;99.90;;;;;;5072874;22;20071;-82
2022/04/12 05:19:38;;;;;;;16.17;8.63;;;6.20;99.90;;;;;;5083651;28;20380;-83
2022/04/12 05:22:04;;;;;;;16.95;9.07;;;6.20;99.90;;;;;;5082831;28;20051;-82
2022/04/12 05:24:29;;;;;;;18.42;9.50;;;6.20;99.90;;;;;;5086907;22;20083;-82
2022/04/12 05:26:55;;;;;;;16.63;8.85;;;6.10;99.90;;;;;;5063074;28;20063;-83
2022/04/12 05:29:21;;;;;;;13.93;9.00;;;6.40;99.90;;;;;;5046216;28;20040;-82
2022/04/12 05:31:46;;;;;;;15.35;8.75;;;7.00;99.90;;;;;;5061130;22;20499;-83
2022/04/12 05:34:12;;;;;;;13.73;8.40;;;6.40;99.90;;;;;;5081809;28;20064;-82
2022/04/12 05:36:38;;;;;;;16.65;9.45;;;6.90;99.90;;;;;;5065495;28;20123;-83
2022/04/12 05:39:03;;;;;;;13.18;8.48;;;7.90;99.90;;;;;;5083312;28;20044;-82
2022/04/12 05:41:29;;;;;;;15.55;8.63;;;7.30;99.90;;;;;;5066826;28;20529;-82
2022/04/12 05:43:54;;;;;;;13.18;8.68;;;7.80;99.90;;;;;;5068387;28;20044;-82
2022/04/12 05:46:20;;;;;;;14.02;8.60;;;6.80;99.90;;;;;;5105395;28;20379;-82
2022/04/12 05:48:46;;;;;;;14.70;8.98;;;6.60;99.90;;;;;;5069542;28;20047;-82
2022/04/12 05:51:12;;;;;;;15.60;8.90;;;6.60;99.90;;;;;;5104648;22;20040;-82
2022/04/12 05:53:38;;;;;;;13.32;8.55;;;6.70;99.90;;;;;;5078801;22;20061;-83
2022/04/12 05:56:04;;;;;;;15.13;9.13;;;6.70;99.90;;;;;;5083979;28;20038;-82
2022/04/12 05:58:32;;;;;;;13.00;8.65;;;6.70;99.90;;;;;;5083519;28;20097;-82
2022/04/12 06:00:58;;;;;;;12.90;8.23;;;6.70;99.90;;;;;;5107673;28;20044;-83
2022/04/12 06:03:23;;;;;;;15.25;8.77;;;8.20;99.90;;;;;;5074432;28;20077;-82
2022/04/12 06:05:49;;;;;;;13.32;8.57;;;8.60;99.90;;;;;;5090238;28;20134;-82
2022/04/12 06:08:15;;;;;;;13.48;8.43;;;6.60;99.90;;;;;;5075949;28;20055;-82
2022/04/12 06:10:40;;;;;;;13.82;8.70;;;8.40;99.90;;;;;;5091922;28;20044;-82
2022/04/12 06:13:06;;;;;;;14.13;8.45;;;7.00;99.90;;;;;;5074800;28;20041;-82
2022/04/12 06:15:32;;;;;;;15.40;8.48;;;7.00;99.90;;;;;;5070452;28;20553;-82
2022/04/12 06:17:57;;;;;;;12.82;8.63;;;8.40;99.90;;;;;;5068859;28;20048;-82
2022/04/12 06:20:23;;;;;;;15.45;8.80;;;7.40;99.90;;;;;;5066158;28;20037;-82
2022/04/12 06:22:49;;;;;;;14.48;8.30;;;7.30;99.90;;;;;;5066417;28;20064;-82
2022/04/12 06:25:19;;;;;;;14.52;7.95;;;7.60;99.90;;;;;;5083841;28;20072;-82
2022/04/12 06:27:50;;;;;;;12.32;7.95;;;7.00;99.90;;;;;;5066939;28;20051;-82
2022/04/12 06:30:18;;;;;;;12.93;8.02;;;6.30;99.90;;;;;;5067968;28;20362;-82
2022/04/12 06:32:44;;;;;;;12.57;7.60;;;8.50;99.90;;;;;;5069609;22;20049;-82
2022/04/12 06:35:11;;;;;;;12.98;8.45;;;8.30;99.90;;;;;;5046492;28;20055;-82
2022/04/12 06:37:39;;;;;;;13.98;8.25;;;7.10;99.90;;;;;;5046507;28;20140;-82
2022/04/12 06:40:07;;;;;;;14.23;8.40;;;8.00;99.90;;;;;;5046287;28;20047;-82
2022/04/12 06:42:33;;;;;;;13.77;8.23;;;7.20;99.90;;;;;;5045941;28;20045;-82
2022/04/12 06:44:58;;;;;;;14.00;8.38;;;6.80;99.90;;;;;;5058154;22;20048;-82
2022/04/12 06:47:24;;;;;;;13.75;8.20;;;7.20;99.90;;;;;;5069494;22;20088;-83
2022/04/12 06:49:51;;;;;;;12.77;8.40;;;8.30;99.90;;;;;;5045176;28;20120;-82
2022/04/12 06:52:19;;;;;;;12.68;7.40;;;8.80;99.90;;;;;;5082516;22;20056;-83
2022/04/12 06:54:45;;;;;;;13.18;8.02;;;8.80;99.90;;;;;;5065086;28;20059;-82
2022/04/12 06:57:11;;;;;;;14.02;8.32;;;7.50;99.90;;;;;;5064216;28;20048;-83
2022/04/12 06:59:37;;;;;;;13.35;7.40;;;8.00;99.90;;;;;;5069614;22;20045;-82
2022/04/12 07:02:03;;;;;;;14.30;8.07;;;7.70;99.90;;;;;;5046153;28;20057;-83
2022/04/12 07:04:29;;;;;;;15.15;8.70;;;7.90;99.90;;;;;;5080082;28;20041;-83
2022/04/12 07:06:56;;;;;;;14.25;7.15;;;8.00;99.90;;;;;;5046830;28;20048;-83
2022/04/12 07:09:27;;;;;;;11.88;7.75;;;8.40;99.90;;;;;;5062531;28;20067;-83
2022/04/12 07:12:13;;;;;;;16.10;8.15;;;9.00;99.90;;;;;;5045972;28;20095;-82
2022/04/12 07:14:38;;;;;;;12.85;7.72;;;8.50;99.90;;;;;;5045933;28;20128;-83
2022/04/12 07:17:05;;;;;;;11.32;7.40;;;8.60;99.90;;;;;;5045709;28;20076;-83
2022/04/12 07:19:31;;;;;;;12.82;7.70;;;8.60;99.90;;;;;;5036112;22;21281;-82
2022/04/12 07:21:57;;;;;;;14.93;7.68;;;9.90;99.90;;;;;;4795528;23;20053;-84
2022/04/12 07:24:23;;;;;;;12.52;7.32;;;8.90;99.90;;;;;;5042273;28;20057;-84
2022/04/12 07:26:48;;;;;;;13.45;7.68;;;8.90;99.90;;;;;;5047127;28;20045;-92
2022/04/12 07:29:14;;;;;;;13.23;7.53;;;9.10;99.90;;;;;;5040387;28;20076;-91
2022/04/12 07:31:40;;;;;;;12.18;7.65;;;9.20;99.90;;;;;;5043535;28;20046;-89
2022/04/12 07:34:07;;;;;;;12.82;7.45;;;9.30;99.90;;;;;;5044269;28;20058;-91
2022/04/12 07:36:33;;;;;;;11.30;7.57;;;9.40;99.90;;;;;;5054739;28;20033;-88
2022/04/12 07:38:58;;;;;;;10.80;7.40;;;9.50;99.90;;;;;;5055085;28;20113;-83
2022/04/12 07:41:24;;;;;;;11.07;7.22;;;9.60;99.90;;;;;;5057009;28;20124;-84
2022/04/12 07:43:52;;;;;;;10.98;7.05;;;10.20;99.90;;;;;;5057472;28;20046;-84
2022/04/12 07:46:17;;;;;;;12.45;7.13;;;10.00;99.90;;;;;;5044991;28;20081;-84
2022/04/12 07:48:43;;;;;;;10.55;6.88;;;10.10;99.90;;;;;;5043982;28;20140;-91
2022/04/12 07:51:10;;;;;;;10.90;6.93;;;10.20;99.90;;;;;;5043009;28;20045;-87
2022/04/12 07:53:36;;;;;;;13.65;7.05;;;10.30;99.90;;;;;;5045101;28;20045;-85
2022/04/12 07:56:02;;;;;;;12.55;7.00;;;10.50;99.90;;;;;;5045179;28;20061;-85
2022/04/12 07:58:28;;;;;;;12.93;6.97;;;10.60;99.90;;;;;;5044898;28;20060;-83
2022/04/12 08:00:54;;;;;;;11.95;7.05;;;10.70;99.90;;;;;;5045444;28;20049;-83
2022/04/12 08:03:21;;;;;;;10.93;7.00;;;11.00;99.90;;;;;;5045518;28;20069;-87
2022/04/12 08:05:50;;;;;;;10.45;6.70;;;11.00;99.90;;;;;;5043554;28;20515;-87
2022/04/12 08:08:16;;;;;;;11.48;6.50;;;11.20;99.90;;;;;;5039480;28;20087;-88
2022/04/12 08:10:42;;;;;;;11.13;7.38;;;11.20;99.90;;;;;;5038781;28;20120;-89
2022/04/12 08:13:08;;;;;;;10.88;6.70;;;11.40;99.90;;;;;;5039898;28;20049;-92
2022/04/12 08:15:34;;;;;;;11.27;6.88;;;11.50;99.90;;;;;;5040244;28;20050;-91
2022/04/12 08:18:00;;;;;;;10.57;6.55;;;11.60;99.90;;;;;;5039877;28;20080;-85
2022/04/12 08:20:26;;;;;;;11.60;6.53;;;11.70;99.90;;;;;;5041026;28;20053;-84
2022/04/12 08:22:52;;;;;;;10.95;6.72;;;11.90;99.90;;;;;;5040769;28;20493;-84
2022/04/12 08:25:18;;;;;;;10.75;6.55;;;12.00;99.90;;;;;;5040594;28;20435;-91
2022/04/12 08:27:44;;;;;;;11.23;6.20;;;12.10;99.90;;;;;;5041282;28;20048;-83
2022/04/12 08:30:11;;;;;;;10.70;6.35;;;12.20;99.90;;;;;;5039218;28;20045;-84
2022/04/12 08:32:37;;;;;;;11.85;6.40;;;12.30;99.90;;;;;;5039973;28;20056;-84
2022/04/12 08:35:09;;;;;;;11.13;6.15;;;12.30;99.90;;;;;;5038076;28;20045;-84
2022/04/12 08:37:36;;;;;;;11.48;6.50;;;12.50;99.90;;;;;;5040295;28;20400;-88
2022/04/12 08:40:02;;;;;;;9.32;6.20;;;12.50;99.90;;;;;;5041332;28;20053;-88
2022/04/12 08:42:28;;;;;;;11.77;6.85;;;12.60;99.90;;;;;;5039441;28;20045;-91
2022/04/12 08:44:57;;;;;;;11.95;6.50;;;12.70;99.90;;;;;;5038276;28;20056;-87
2022/04/12 08:47:24;;;;;;;10.75;6.05;;;12.80;99.90;;;;;;5038407;28;20053;-91
2022/04/12 08:49:51;;;;;;;10.38;6.78;;;12.90;99.90;;;;;;5039034;28;20057;-85
2022/04/12 08:52:17;;;;;;;12.90;6.40;;;12.90;99.90;;;;;;5038666;28;20460;-83
2022/04/12 08:54:44;;;;;;;10.68;6.53;;;12.90;99.90;;;;;;5055597;28;20120;-89
2022/04/12 08:57:11;;;;;;;10.70;6.25;;;13.00;99.90;;;;;;5038179;28;20128;-90
2022/04/12 08:59:38;;;;;;;11.27;6.82;;;13.10;99.90;;;;;;5039466;28;20056;-87
2022/04/12 09:02:10;;;;;;;10.15;5.97;;;13.30;99.90;;;;;;5037769;28;20041;-83
2022/04/12 09:04:36;;;;;;;8.98;5.93;;;13.30;99.90;;;;;;5038205;28;20068;-88
2022/04/12 09:07:08;;;;;;;9.23;5.88;;;13.40;99.90;;;;;;5039845;28;20092;-92
2022/04/12 09:09:34;;;;;;;8.20;5.65;;;13.40;99.90;;;;;;5037273;28;20073;-84
2022/04/12 09:12:03;;;;;;;11.50;5.78;;;13.50;99.90;;;;;;5040847;28;20490;-90
2022/04/12 09:14:52;;;;;;;9.73;5.97;;;13.50;99.90;;;;;;5035307;28;20056;-83
2022/04/12 09:17:39;;;;;;;12.68;6.18;;;13.60;99.90;;;;;;5037056;28;20056;-88
2022/04/12 09:20:19;;;;;;;9.13;5.78;;;13.80;99.90;;;;;;5073295;22;20111;-84
2022/04/12 09:22:48;;;;;;;8.25;5.60;;;13.90;99.90;;;;;;5101267;28;20047;-91
2022/04/12 09:25:17;;;;;;;9.30;6.18;;;14.00;99.90;;;;;;5100897;28;20113;-92
2022/04/12 09:27:49;;;;;;;9.60;6.28;;;14.00;99.90;;;;;;5101395;28;20047;-85
2022/04/12 09:30:15;;;;;;;10.13;6.18;;;14.10;99.90;;;;;;5106546;28;20040;-83
2022/04/12 09:32:45;;;;;;;10.32;5.57;;;14.20;99.90;;;;;;5103676;28;20428;-84
2022/04/12 09:35:11;;;;;;;10.15;5.78;;;14.40;99.90;;;;;;5103790;28;20066;-94
2022/04/12 09:37:39;;;;;;;9.82;5.40;;;14.40;99.90;;;;;;5101094;28;20040;-93
2022/04/12 09:40:08;;;;;;;9.50;6.03;;;14.60;99.90;;;;;;5101946;28;20044;-91
2022/04/12 09:42:38;;;;;;;9.65;5.63;;;14.80;99.90;;;;;;5081043;28;20036;-92
2022/04/12 09:45:06;;;;;;;10.10;5.57;;;14.90;99.90;;;;;;5101917;28;20093;-94
2022/04/12 09:47:32;;;;;;;9.65;5.30;;;15.00;99.90;;;;;;5101621;28;20043;-88
2022/04/12 09:50:00;;;;;;;9.00;5.30;;;15.00;99.90;;;;;;5081909;28;20052;-84
2022/04/12 09:52:27;;;;;;;8.52;5.22;;;15.00;99.90;;;;;;5101236;28;20048;-92
2022/04/12 09:54:56;;;;;;;9.65;5.90;;;15.00;99.90;;;;;;5100159;28;20040;-83
2022/04/12 09:57:23;;;;;;;10.93;5.80;;;15.10;99.90;;;;;;5100085;28;20048;-92
2022/04/12 09:59:53;;;;;;;10.57;6.03;;;15.10;99.90;;;;;;5100674;28;20055;-84
2022/04/12 10:02:19;;;;;;;10.77;6.47;;;15.10;99.90;;;;;;5084034;28;20074;-92
2022/04/12 10:04:46;;;;;;;9.13;5.68;;;15.30;99.90;;;;;;5102982;28;20044;-83
2022/04/12 10:07:14;;;;;;;10.40;5.72;;;15.40;99.90;;;;;;5097258;28;20040;-83
2022/04/12 10:09:41;;;;;;;10.45;6.45;;;15.30;99.90;;;;;;5117232;28;20031;-84
2022/04/12 10:12:08;;;;;;;10.07;5.88;;;15.40;99.90;;;;;;5118361;28;20035;-84
2022/04/12 10:14:35;;;;;;;10.10;6.22;;;15.50;99.90;;;;;;5091459;28;20048;-84
2022/04/12 10:17:02;;;;;;;10.60;6.00;;;15.70;99.90;;;;;;5083380;28;20080;-86
2022/04/12 10:19:32;;;;;;;10.13;6.10;;;15.80;99.90;;;;;;5100311;28;20044;-85
2022/04/12 10:21:57;;;;;;;9.52;6.05;;;16.00;99.90;;;;;;5099586;28;20048;-84
2022/04/12 10:24:27;;;;;;;8.48;5.72;;;16.00;99.90;;;;;;5080865;28;20122;-87
2022/04/12 10:26:55;;;;;;;10.75;5.82;;;16.10;99.90;;;;;;5098537;28;20414;-84
2022/04/12 10:29:21;;;;;;;9.77;5.85;;;16.20;99.90;;;;;;5098048;28;20067;-86
2022/04/12 10:32:01;;;;;;;9.18;5.70;;;16.30;99.90;;;;;;5097033;28;20044;-86
2022/04/12 10:34:27;;;;;;;21.08;7.20;;;16.40;99.90;;;;;;5079634;28;20471;-84
2022/04/12 10:36:56;;;;;;;9.77;6.07;;;16.50;99.90;;;;;;5098849;28;20047;-88
2022/04/12 10:39:30;;;;;;;9.63;5.72;;;16.50;99.90;;;;;;5098539;28;20042;-89
2022/04/12 10:41:57;;;;;;;9.90;5.68;;;16.60;99.90;;;;;;5079605;28;20406;-85
2022/04/12 10:44:23;;;;;;;9.05;5.30;;;16.80;99.90;;;;;;5097851;28;20080;-84
2022/04/12 10:46:51;;;;;;;10.18;5.40;;;17.00;99.90;;;;;;5098824;28;20064;-85
2022/04/12 10:49:19;;;;;;;9.45;5.15;;;17.20;99.90;;;;;;5098797;28;20048;-85
2022/04/12 10:51:46;;;;;;;9.27;5.88;;;17.30;99.90;;;;;;5103093;28;20036;-88
2022/04/12 10:54:33;;;;;;;8.65;5.40;;;17.30;99.90;;;;;;5102745;28;20052;-89
2022/04/12 10:57:22;;;;;;;10.43;5.78;;;17.40;99.90;;;;;;5079812;28;20052;-85
2022/04/12 10:59:50;;;;;;;9.20;5.70;;;17.40;99.90;;;;;;5078568;28;20118;-84
2022/04/12 11:02:17;;;;;;;7.07;5.30;;;17.30;99.90;;;;;;5096996;28;20044;-83
2022/04/12 11:04:42;;;;;;;8.32;5.03;;;17.30;99.90;;;;;;5080975;28;20055;-89
2022/04/12 11:07:09;;;;;;;9.48;5.25;;;17.40;99.90;;;;;;5098399;28;20044;-86
2022/04/12 11:09:35;;;;;;;8.07;4.95;;;17.30;99.90;;;;;;5080021;28;20483;-85
2022/04/12 11:12:02;;;;;;;9.68;5.30;;;17.20;99.90;;;;;;5102579;28;20047;-85
2022/04/12 11:14:36;;;;;;;8.65;5.03;;;17.20;99.90;;;;;;5064046;28;20036;-87
2022/04/12 11:17:14;;;;;;;7.90;5.10;;;17.30;99.90;;;;;;5097676;28;20048;-88
2022/04/12 11:19:45;;;;;;;8.50;5.38;;;17.30;99.90;;;;;;5078790;28;20040;-85
2022/04/12 11:22:16;;;;;;;7.88;4.95;;;17.40;99.90;;;;;;5078131;28;20544;-84
2022/04/12 11:24:42;;;;;;;8.23;5.13;;;17.50;99.90;;;;;;5096551;28;20036;-87
2022/04/12 11:27:12;;;;;;;8.05;4.68;;;17.80;99.90;;;;;;5096920;28;20063;-86
2022/04/12 11:29:43;;;;;;;10.48;5.22;;;17.90;99.90;;;;;;5096219;28;20482;-84
2022/04/12 11:32:10;;;;;;;9.50;5.32;;;18.10;99.90;;;;;;5078486;28;20127;-85
2022/04/12 11:34:38;;;;;;;11.63;5.80;;;18.20;99.90;;;;;;5078941;28;20040;-84
2022/04/12 11:37:11;;;;;;;8.77;6.07;;;18.20;99.90;;;;;;5097253;28;20048;-85
2022/04/12 11:39:41;;;;;;;7.95;4.90;;;18.20;99.90;;;;;;5079482;28;20052;-84
2022/04/12 11:42:15;;;;;;;8.30;5.35;;;18.10;99.90;;;;;;5096962;28;20075;-88
2022/04/12 11:44:50;;;;;;;8.93;5.55;;;18.20;99.90;;;;;;5096861;28;20052;-85
2022/04/12 11:47:17;;;;;;;8.88;5.13;;;18.20;99.90;;;;;;5078898;28;20463;-84
2022/04/12 11:49:43;;;;;;;7.50;4.90;;;18.20;99.90;;;;;;5077768;28;20048;-83
2022/04/12 11:52:11;;;;;;;7.68;5.57;;;18.20;99.90;;;;;;5078228;28;20036;-84
2022/04/12 11:54:43;;;;;;;7.55;5.20;;;18.30;99.90;;;;;;5061662;28;20044;-83
2022/04/12 11:57:12;;;;;;;8.30;5.18;;;18.60;99.90;;;;;;5096198;28;20044;-83
2022/04/12 11:59:48;;;;;;;9.68;5.47;;;18.70;99.90;;;;;;5096110;28;20044;-89
2022/04/12 12:02:15;;;;;;;8.68;5.43;;;18.90;99.90;;;;;;5095830;28;20487;-84
2022/04/12 12:04:50;;;;;;;10.55;5.88;;;19.00;99.90;;;;;;5077626;28;20036;-84
2022/04/12 12:07:16;;;;;;;12.15;6.13;;;19.10;99.90;;;;;;5096086;28;20410;-83
2022/04/12 12:09:56;;;;;;;10.55;6.47;;;19.10;99.90;;;;;;5077302;28;20551;-84
2022/04/12 12:12:32;;;;;;;8.88;5.53;;;19.00;99.90;;;;;;5098138;28;20074;-83
2022/04/12 12:14:58;;;;;;;9.38;6.40;;;19.10;99.90;;;;;;5082516;28;20044;-83
2022/04/12 12:17:26;;;;;;;9.05;6.38;;;19.10;99.90;;;;;;5100059;28;20050;-83
2022/04/12 12:19:52;;;;;;;9.43;5.70;;;19.20;99.90;;;;;;5098716;28;20529;-83
2022/04/12 12:22:17;;;;;;;8.57;5.93;;;19.30;99.90;;;;;;5099450;28;20127;-83
2022/04/12 12:24:53;;;;;;;9.35;6.07;;;19.40;99.90;;;;;;5080341;28;20079;-84
2022/04/12 12:27:33;;;;;;;9.32;5.75;;;19.50;99.90;;;;;;5081032;28;20044;-83
2022/04/12 12:30:08;;;;;;;12.05;5.70;;;19.30;99.90;;;;;;5082412;28;20036;-92
2022/04/12 12:32:36;;;;;;;8.75;5.60;;;19.20;99.90;;;;;;5082488;28;20141;-83
2022/04/12 12:35:04;;;;;;;8.95;5.70;;;19.20;99.90;;;;;;5082025;28;20538;-83
2022/04/12 12:37:30;;;;;;;10.52;5.93;;;19.00;99.90;;;;;;5099676;28;20044;-83
2022/04/12 12:39:55;;;;;;;12.40;6.55;;;19.00;99.90;;;;;;5100022;28;20051;-83
2022/04/12 12:42:22;;;;;;;10.43;5.70;;;18.80;99.90;;;;;;5082907;28;20040;-83
2022/04/12 12:44:48;;;;;;;9.10;5.88;;;18.70;99.90;;;;;;5100974;28;20055;-83
2022/04/12 12:47:14;;;;;;;8.48;5.82;;;18.60;99.90;;;;;;5081843;28;20040;-84
2022/04/12 12:49:41;;;;;;;11.20;5.38;;;18.40;99.90;;;;;;5100302;28;20056;-83
2022/04/12 12:52:10;;;;;;;9.43;6.38;;;18.50;99.90;;;;;;5065185;28;20070;-89
2022/04/12 12:54:37;;;;;;;10.20;5.78;;;18.50;99.90;;;;;;5081306;28;20479;-83